createdAt,value
2019-01-15T00:00:06.113Z,3.20
2019-01-15T00:02:34.650Z,3.30
2019-01-15T00:05:03.158Z,3.20
2019-01-15T00:07:31.563Z,3.20
2019-01-15T00:09:59.972Z,3.20
2019-01-15T00:12:28.406Z,3.20
2019-01-15T00:14:56.843Z,3.20
2019-01-15T00:17:25.269Z,3.20
2019-01-15T00:19:53.702Z,3.20
2019-01-15T00:22:22.128Z,3.20
2019-01-15T00:24:50.562Z,3.20
2019-01-15T00:27:18.981Z,3.20
2019-01-15T00:29:47.405Z,3.20
2019-01-15T00:32:15.841Z,3.20
2019-01-15T00:34:44.256Z,3.20
2019-01-15T00:37:12.742Z,3.20
2019-01-15T00:39:41.161Z,3.20
2019-01-15T00:42:15.312Z,3.20
2019-01-15T00:44:39.735Z,3.20
2019-01-15T00:47:08.168Z,3.20
2019-01-15T00:49:36.592Z,3.20
2019-01-15T00:52:05.075Z,3.20
2019-01-15T00:54:33.496Z,3.20
2019-01-15T00:57:02.006Z,3.20
2019-01-15T00:59:30.415Z,3.20
2019-01-15T01:01:58.842Z,3.20
2019-01-15T01:04:58.998Z,3.20
2019-01-15T01:07:27.488Z,3.20
2019-01-15T01:09:55.919Z,3.20
2019-01-15T01:12:24.440Z,3.10
2019-01-15T01:14:52.874Z,3.10
2019-01-15T01:17:21.313Z,3.20
2019-01-15T01:19:49.721Z,3.20
2019-01-15T01:22:18.145Z,3.10
2019-01-15T01:24:46.574Z,3.10
2019-01-15T01:27:14.986Z,3.10
2019-01-15T01:29:43.420Z,3.10
2019-01-15T01:32:11.846Z,3.10
2019-01-15T01:34:40.276Z,3.10
2019-01-15T01:37:08.754Z,3.10
2019-01-15T01:39:37.184Z,3.10
2019-01-15T01:42:05.618Z,3.10
2019-01-15T01:44:34.023Z,3.10
2019-01-15T01:47:02.539Z,3.10
2019-01-15T01:49:30.941Z,3.10
2019-01-15T01:51:59.377Z,3.10
2019-01-15T01:54:27.805Z,3.10
2019-01-15T01:56:56.219Z,3.10
2019-01-15T01:59:24.656Z,3.10
2019-01-15T02:01:53.101Z,3.10
2019-01-15T02:04:21.531Z,3.10
2019-01-15T02:06:49.969Z,3.10
2019-01-15T02:09:18.384Z,3.10
2019-01-15T02:11:46.789Z,3.10
2019-01-15T02:14:15.223Z,3.10
2019-01-15T02:16:43.633Z,3.10
2019-01-15T02:19:12.102Z,3.10
2019-01-15T02:21:40.509Z,3.10
2019-01-15T02:24:08.931Z,3.10
2019-01-15T02:26:37.369Z,3.10
2019-01-15T02:29:05.789Z,3.10
2019-01-15T02:31:34.222Z,3.10
2019-01-15T02:34:02.651Z,3.10
2019-01-15T02:36:31.074Z,3.10
2019-01-15T02:38:59.518Z,3.10
2019-01-15T02:41:27.950Z,3.10
2019-01-15T02:43:56.371Z,3.10
2019-01-15T02:46:24.804Z,3.00
2019-01-15T02:48:53.212Z,3.10
2019-01-15T02:51:21.652Z,3.00
2019-01-15T02:53:50.075Z,3.00
2019-01-15T02:56:18.480Z,3.10
2019-01-15T02:58:49.925Z,3.00
2019-01-15T03:01:18.364Z,3.00
2019-01-15T03:03:46.772Z,3.00
2019-01-15T03:06:15.218Z,3.00
2019-01-15T03:08:43.645Z,3.00
2019-01-15T03:11:12.082Z,3.00
2019-01-15T03:13:40.517Z,3.00
2019-01-15T03:16:08.945Z,3.00
2019-01-15T03:18:37.354Z,3.00
2019-01-15T03:21:05.789Z,3.00
2019-01-15T03:23:34.206Z,3.00
2019-01-15T03:26:02.705Z,3.00
2019-01-15T03:28:31.126Z,3.00
2019-01-15T03:30:59.575Z,3.00
2019-01-15T03:33:28.202Z,3.00
2019-01-15T03:35:56.643Z,3.00
2019-01-15T03:38:25.063Z,3.00
2019-01-15T03:40:53.504Z,2.90
2019-01-15T03:43:22.010Z,2.90
2019-01-15T03:45:50.444Z,3.00
2019-01-15T03:48:18.903Z,2.90
2019-01-15T03:50:47.313Z,2.90
2019-01-15T03:53:15.831Z,2.90
2019-01-15T03:55:44.265Z,2.90
2019-01-15T03:58:12.679Z,2.90
2019-01-15T04:00:41.096Z,2.90
2019-01-15T04:03:09.510Z,2.90
2019-01-15T04:05:37.931Z,2.90
2019-01-15T04:08:06.351Z,2.90
2019-01-15T04:10:34.767Z,2.90
2019-01-15T04:13:10.991Z,2.90
2019-01-15T04:15:33.474Z,2.90
2019-01-15T04:18:01.897Z,2.80
2019-01-15T04:20:30.312Z,2.80
2019-01-15T04:22:58.744Z,2.80
2019-01-15T04:25:27.236Z,2.80
2019-01-15T04:27:55.651Z,2.80
2019-01-15T04:30:24.209Z,2.80
2019-01-15T04:32:52.715Z,2.80
2019-01-15T04:35:21.336Z,2.80
2019-01-15T04:37:49.832Z,2.80
2019-01-15T04:40:19.882Z,2.80
2019-01-15T04:42:48.553Z,2.80
2019-01-15T04:45:18.697Z,2.80
2019-01-15T04:47:47.119Z,2.80
2019-01-15T04:50:16.199Z,2.80
2019-01-15T04:52:46.471Z,2.70
2019-01-15T04:55:15.105Z,2.70
2019-01-15T04:57:43.525Z,2.70
2019-01-15T05:00:17.080Z,2.70
2019-01-15T05:02:45.754Z,2.70
2019-01-15T05:05:14.412Z,2.70
2019-01-15T05:07:42.901Z,2.70
2019-01-15T05:10:15.692Z,2.70
2019-01-15T05:12:44.121Z,2.70
2019-01-15T05:15:16.895Z,2.70
2019-01-15T05:17:45.417Z,2.70
2019-01-15T05:20:18.106Z,2.70
2019-01-15T05:22:46.775Z,2.70
2019-01-15T05:25:17.637Z,2.70
2019-01-15T05:27:46.072Z,2.70
2019-01-15T05:30:19.871Z,2.70
2019-01-15T05:32:48.351Z,2.60
2019-01-15T05:35:16.855Z,2.60
2019-01-15T05:37:45.352Z,2.60
2019-01-15T05:40:15.216Z,2.60
2019-01-15T05:42:43.622Z,2.60
2019-01-15T05:45:29.988Z,2.60
2019-01-15T05:48:00.034Z,2.60
2019-01-15T05:50:30.105Z,2.60
2019-01-15T05:52:58.551Z,2.60
2019-01-15T05:55:26.982Z,2.60
2019-01-15T05:57:55.386Z,2.60
2019-01-15T06:00:23.884Z,2.60
2019-01-15T06:02:52.310Z,2.60
2019-01-15T06:05:20.857Z,2.60
2019-01-15T06:07:49.274Z,2.60
2019-01-15T06:10:17.714Z,2.60
2019-01-15T06:12:46.207Z,2.60
2019-01-15T06:15:17.785Z,2.60
2019-01-15T06:17:46.265Z,2.60
2019-01-15T06:20:19.484Z,2.60
2019-01-15T06:22:48.027Z,2.60
2019-01-15T06:25:17.009Z,2.60
2019-01-15T06:27:45.591Z,2.60
2019-01-15T06:30:19.288Z,2.50
2019-01-15T06:32:47.966Z,2.50
2019-01-15T06:35:16.521Z,2.50
2019-01-15T06:37:45.023Z,2.50
2019-01-15T06:40:18.347Z,2.50
2019-01-15T06:42:46.837Z,2.50
2019-01-15T06:45:23.787Z,2.50
2019-01-15T06:47:52.290Z,2.50
2019-01-15T06:50:20.775Z,2.50
2019-01-15T06:52:49.361Z,2.50
2019-01-15T06:55:20.003Z,2.50
2019-01-15T06:57:48.667Z,2.50
2019-01-15T07:00:25.232Z,2.50
2019-01-15T07:02:53.718Z,2.50
2019-01-15T07:05:22.217Z,2.50
2019-01-15T07:07:50.696Z,2.50
2019-01-15T07:10:24.988Z,2.50
2019-01-15T07:12:53.409Z,2.50
2019-01-15T07:15:21.965Z,2.50
2019-01-15T07:17:50.382Z,2.50
2019-01-15T07:20:18.905Z,2.50
2019-01-15T07:22:47.480Z,2.50
2019-01-15T07:25:21.749Z,2.50
2019-01-15T07:27:50.316Z,2.50
2019-01-15T07:30:24.421Z,2.50
2019-01-15T07:32:52.909Z,2.50
2019-01-15T07:35:21.320Z,2.50
2019-01-15T07:37:49.756Z,2.50
2019-01-15T07:40:18.340Z,2.50
2019-01-15T07:42:46.751Z,2.50
2019-01-15T07:45:15.323Z,2.50
2019-01-15T07:47:43.760Z,2.50
2019-01-15T07:50:15.124Z,2.50
2019-01-15T07:52:43.672Z,2.50
2019-01-15T07:55:14.724Z,2.50
2019-01-15T07:57:43.234Z,2.50
2019-01-15T08:00:17.111Z,2.50
2019-01-15T08:02:45.659Z,2.50
2019-01-15T08:05:16.424Z,2.50
2019-01-15T08:07:44.907Z,2.50
2019-01-15T08:10:15.843Z,2.50
2019-01-15T08:12:44.343Z,2.50
2019-01-15T08:15:24.405Z,2.50
2019-01-15T08:17:52.840Z,2.50
2019-01-15T08:20:21.251Z,2.50
2019-01-15T08:22:49.753Z,2.50
2019-01-15T08:25:18.474Z,2.60
2019-01-15T08:27:47.037Z,2.50
2019-01-15T08:30:21.105Z,2.50
2019-01-15T08:32:49.555Z,2.50
2019-01-15T08:35:18.049Z,2.50
2019-01-15T08:37:46.485Z,2.60
2019-01-15T08:40:16.862Z,2.50
2019-01-15T08:42:45.350Z,2.60
2019-01-15T08:45:17.960Z,2.60
2019-01-15T08:47:51.279Z,2.60
2019-01-15T08:50:27.902Z,2.60
2019-01-15T08:52:56.347Z,2.70
2019-01-15T08:55:24.904Z,2.70
2019-01-15T08:57:53.412Z,2.70
2019-01-15T09:00:21.989Z,2.70
2019-01-15T09:02:50.437Z,2.70
2019-01-15T09:05:18.924Z,2.70
2019-01-15T09:07:47.407Z,2.70
2019-01-15T09:10:16.577Z,2.70
2019-01-15T09:12:45.348Z,2.70
2019-01-15T09:15:16.292Z,2.70
2019-01-15T09:17:44.929Z,2.70
2019-01-15T09:20:15.629Z,2.80
2019-01-15T09:22:44.206Z,2.80
2019-01-15T09:25:12.695Z,2.80
2019-01-15T09:27:41.188Z,2.80
2019-01-15T09:30:15.102Z,2.80
2019-01-15T09:32:43.582Z,2.80
2019-01-15T09:35:12.090Z,2.80
2019-01-15T09:37:40.693Z,2.90
2019-01-15T09:40:17.819Z,2.80
2019-01-15T09:42:46.300Z,2.80
2019-01-15T09:45:16.792Z,2.90
2019-01-15T09:47:49.633Z,2.90
2019-01-15T09:50:19.639Z,3.00
2019-01-15T09:52:48.553Z,3.10
2019-01-15T09:55:17.128Z,3.10
2019-01-15T09:57:45.564Z,3.20
2019-01-15T10:00:16.883Z,3.20
2019-01-15T10:02:45.324Z,3.30
2019-01-15T10:05:13.955Z,3.30
2019-01-15T10:07:42.430Z,3.50
2019-01-15T10:10:13.968Z,3.50
2019-01-15T10:12:45.466Z,3.60
2019-01-15T10:15:18.729Z,3.70
2019-01-15T10:17:47.328Z,3.70
2019-01-15T10:20:17.802Z,3.80
2019-01-15T10:22:47.154Z,3.80
2019-01-15T10:25:17.389Z,3.90
2019-01-15T10:27:47.149Z,3.90
2019-01-15T10:30:29.459Z,4.00
2019-01-15T10:33:03.730Z,4.10
2019-01-15T10:35:35.226Z,4.10
2019-01-15T10:38:03.736Z,4.20
2019-01-15T10:40:32.171Z,4.30
2019-01-15T10:43:00.585Z,4.40
2019-01-15T10:45:29.093Z,4.50
2019-01-15T10:47:57.780Z,4.50
2019-01-15T10:50:27.822Z,4.60
2019-01-15T10:52:56.276Z,4.70
2019-01-15T10:55:24.692Z,4.80
2019-01-15T10:57:53.106Z,4.80
2019-01-15T11:00:21.600Z,4.90
2019-01-15T11:02:50.043Z,5.00
2019-01-15T11:05:18.522Z,5.10
2019-01-15T11:07:46.943Z,5.20
2019-01-15T11:10:16.292Z,5.20
2019-01-15T11:12:44.729Z,5.30
2019-01-15T11:15:13.391Z,5.30
2019-01-15T11:17:41.840Z,5.30
2019-01-15T11:20:13.348Z,5.40
2019-01-15T11:22:41.833Z,5.50
2019-01-15T11:25:11.365Z,5.50
2019-01-15T11:27:39.893Z,5.60
2019-01-15T11:30:11.458Z,5.60
2019-01-15T11:32:39.903Z,5.60
2019-01-15T11:35:12.695Z,5.70
2019-01-15T11:37:41.124Z,5.70
2019-01-15T11:40:14.918Z,5.80
2019-01-15T11:42:43.406Z,5.80
2019-01-15T11:45:14.913Z,5.90
2019-01-15T11:47:43.691Z,5.90
2019-01-15T11:50:15.261Z,5.90
2019-01-15T11:52:43.739Z,5.80
2019-01-15T11:55:12.419Z,5.80
2019-01-15T11:57:40.897Z,5.80
2019-01-15T12:00:19.952Z,5.80
2019-01-15T12:02:50.161Z,5.70
2019-01-15T12:05:36.265Z,5.70
2019-01-15T12:08:18.410Z,5.70
2019-01-15T12:11:00.107Z,5.60
2019-01-15T12:13:32.915Z,5.60
2019-01-15T12:16:05.922Z,5.50
2019-01-15T12:18:39.020Z,5.40
2019-01-15T12:21:11.548Z,5.40
2019-01-15T12:23:44.404Z,5.40
2019-01-15T12:26:17.332Z,5.40
2019-01-15T12:29:05.218Z,5.30
2019-01-15T12:31:41.044Z,5.30
2019-01-15T12:34:27.452Z,5.30
2019-01-15T12:37:03.166Z,5.20
2019-01-15T12:39:49.439Z,5.20
2019-01-15T12:42:19.506Z,5.20
2019-01-15T12:44:55.212Z,5.20
2019-01-15T12:47:28.007Z,5.20
2019-01-15T12:49:58.057Z,5.10
2019-01-15T12:52:28.205Z,5.20
2019-01-15T12:55:10.294Z,5.10
2019-01-15T12:57:49.449Z,5.10
2019-01-15T13:00:22.389Z,5.00
2019-01-15T13:02:52.464Z,5.00
2019-01-15T13:05:38.522Z,5.00
2019-01-15T13:08:24.589Z,5.00
2019-01-15T13:10:54.640Z,5.00
2019-01-15T13:13:24.718Z,5.00
2019-01-15T13:15:54.777Z,4.90
2019-01-15T13:18:42.691Z,4.90
2019-01-15T13:21:12.755Z,4.90
2019-01-15T13:23:45.506Z,4.90
2019-01-15T13:26:24.229Z,4.90
2019-01-15T13:28:54.316Z,4.90
2019-01-15T13:31:27.072Z,4.90
2019-01-15T13:34:02.764Z,4.90
2019-01-15T13:36:35.576Z,4.90
2019-01-15T13:39:11.237Z,4.80
2019-01-15T13:41:57.588Z,4.80
2019-01-15T13:44:27.658Z,4.80
2019-01-15T13:47:06.558Z,4.80
2019-01-15T13:49:45.691Z,4.80
2019-01-15T13:52:16.777Z,4.80
2019-01-15T13:54:55.935Z,4.80
2019-01-15T13:57:25.982Z,4.80
2019-01-15T13:59:56.054Z,4.70
2019-01-15T14:02:31.543Z,4.80
2019-01-15T14:05:07.327Z,4.70
2019-01-15T14:07:37.388Z,4.70
2019-01-15T14:10:10.531Z,4.70
2019-01-15T14:12:58.707Z,4.70
2019-01-15T14:15:31.326Z,4.70
2019-01-15T14:18:10.199Z,4.70
2019-01-15T14:20:56.109Z,4.70
2019-01-15T14:23:41.188Z,4.70
2019-01-15T14:26:16.960Z,4.70
2019-01-15T14:28:55.865Z,4.60
2019-01-15T14:31:41.949Z,4.60
2019-01-15T14:34:12.032Z,4.60
2019-01-15T14:36:44.651Z,4.60
2019-01-15T14:39:14.715Z,4.60
2019-01-15T14:42:00.657Z,4.60
2019-01-15T14:44:45.640Z,4.60
2019-01-15T14:47:15.816Z,4.60
2019-01-15T14:49:48.462Z,4.50
2019-01-15T14:52:21.059Z,4.50
2019-01-15T14:55:05.974Z,4.50
2019-01-15T14:57:44.830Z,4.50
2019-01-15T15:00:32.461Z,4.50
2019-01-15T15:03:08.022Z,4.50
2019-01-15T15:05:40.806Z,4.50
2019-01-15T15:08:17.093Z,4.50
2019-01-15T15:10:58.766Z,4.50
2019-01-15T15:13:34.338Z,4.50
2019-01-15T15:16:10.172Z,4.50
2019-01-15T15:18:40.238Z,4.50
2019-01-15T15:21:10.380Z,4.40
2019-01-15T15:23:58.322Z,4.40
2019-01-15T15:26:40.381Z,4.40
2019-01-15T15:29:15.895Z,4.40
2019-01-15T15:31:51.517Z,4.40
2019-01-15T15:34:33.181Z,4.40
2019-01-15T15:37:05.991Z,4.40
2019-01-15T15:39:44.886Z,4.30
2019-01-15T15:42:15.000Z,4.40
2019-01-15T15:45:02.950Z,4.30
2019-01-15T15:47:44.947Z,4.30
2019-01-15T15:50:26.507Z,4.30
2019-01-15T15:53:11.763Z,4.30
2019-01-15T15:55:47.923Z,4.30
2019-01-15T15:58:26.864Z,4.30
2019-01-15T16:00:57.067Z,4.30
2019-01-15T16:03:29.983Z,4.30
2019-01-15T16:06:00.085Z,4.30
2019-01-15T16:08:44.983Z,4.30
2019-01-15T16:11:15.295Z,4.30
2019-01-15T16:13:47.856Z,4.30
2019-01-15T16:16:30.015Z,4.20
2019-01-15T16:19:16.107Z,4.20
2019-01-15T16:21:52.263Z,4.20
2019-01-15T16:24:28.266Z,4.20
2019-01-15T16:26:58.477Z,4.20
2019-01-15T16:29:29.093Z,4.20
2019-01-15T16:32:19.067Z,4.20
2019-01-15T16:34:49.337Z,4.20
2019-01-15T16:37:35.905Z,4.20
2019-01-15T16:40:22.885Z,4.20
2019-01-15T16:43:09.249Z,4.20
2019-01-15T16:45:42.359Z,4.20
2019-01-15T16:48:15.085Z,4.10
2019-01-15T16:50:47.637Z,4.10
2019-01-15T16:53:23.457Z,4.10
2019-01-15T16:55:53.510Z,4.10
2019-01-15T16:58:35.583Z,4.10
2019-01-15T17:01:05.713Z,4.10
2019-01-15T17:03:41.515Z,4.10
2019-01-15T17:06:11.642Z,4.10
2019-01-15T17:08:50.769Z,4.10
2019-01-15T17:11:32.617Z,4.10
2019-01-15T17:14:11.673Z,4.10
2019-01-15T17:16:41.819Z,4.10
2019-01-15T17:19:26.490Z,4.10
2019-01-15T17:22:02.209Z,4.10
2019-01-15T17:24:41.330Z,4.10
2019-01-15T17:27:29.347Z,4.00
2019-01-15T17:30:05.101Z,4.10
2019-01-15T17:32:37.838Z,4.00
2019-01-15T17:35:20.310Z,4.00
2019-01-15T17:38:02.242Z,4.10
2019-01-15T17:40:32.293Z,4.00
2019-01-15T17:43:14.225Z,4.00
2019-01-15T17:45:53.128Z,4.00
2019-01-15T17:48:39.232Z,4.00
2019-01-15T17:51:24.477Z,4.00
2019-01-15T17:53:57.263Z,4.00
2019-01-15T17:56:30.345Z,4.00
2019-01-15T17:59:17.998Z,4.00
2019-01-15T18:01:53.950Z,4.00
2019-01-15T18:04:24.013Z,4.00
2019-01-15T18:07:08.908Z,4.00
2019-01-15T18:09:44.918Z,4.00
2019-01-15T18:12:20.889Z,4.00
2019-01-15T18:14:59.816Z,4.00
2019-01-15T18:17:38.709Z,4.00
2019-01-15T18:20:09.518Z,4.00
2019-01-15T18:22:51.142Z,3.90
2019-01-15T18:25:21.220Z,4.00
2019-01-15T18:27:53.685Z,3.90
2019-01-15T18:30:41.701Z,3.90
2019-01-15T18:33:28.142Z,3.90
2019-01-15T18:36:01.164Z,3.90
2019-01-15T18:38:34.024Z,3.90
2019-01-15T18:41:09.807Z,3.90
2019-01-15T18:43:39.874Z,3.90
2019-01-15T18:46:19.497Z,3.90
2019-01-15T18:48:52.195Z,3.90
2019-01-15T18:51:25.397Z,3.90
2019-01-15T18:53:55.478Z,3.90
2019-01-15T18:56:31.226Z,3.90
2019-01-15T18:59:09.986Z,3.90
2019-01-15T19:01:48.604Z,3.90
2019-01-15T19:04:18.645Z,3.90
2019-01-15T19:06:57.433Z,3.90
2019-01-15T19:09:36.255Z,3.90
2019-01-15T19:12:15.108Z,3.90
2019-01-15T19:14:47.892Z,3.90
2019-01-15T19:17:34.258Z,3.90
2019-01-15T19:20:10.220Z,3.90
2019-01-15T19:22:43.249Z,3.80
2019-01-15T19:25:29.244Z,3.90
2019-01-15T19:27:59.440Z,3.90
2019-01-15T19:30:29.512Z,3.90
2019-01-15T19:33:17.210Z,3.80
2019-01-15T19:35:47.269Z,3.80
2019-01-15T19:38:33.666Z,3.80
2019-01-15T19:41:10.155Z,3.80
2019-01-15T19:43:56.838Z,3.80
2019-01-15T19:46:35.679Z,3.80
2019-01-15T19:49:05.817Z,3.80
2019-01-15T19:51:54.040Z,3.80
2019-01-15T19:54:40.393Z,3.80
2019-01-15T19:57:22.459Z,3.80
2019-01-15T19:59:52.512Z,3.90
2019-01-15T20:02:28.402Z,3.80
2019-01-15T20:04:58.477Z,3.80
2019-01-15T20:07:44.925Z,3.80
2019-01-15T20:10:33.394Z,3.80
2019-01-15T20:13:06.751Z,3.80
2019-01-15T20:15:42.573Z,3.80
2019-01-15T20:18:18.324Z,3.80
2019-01-15T20:20:51.047Z,3.80
2019-01-15T20:23:21.201Z,3.80
2019-01-15T20:26:06.125Z,3.80
2019-01-15T20:28:39.079Z,3.80
2019-01-15T20:31:18.209Z,3.80
2019-01-15T20:33:48.650Z,3.80
2019-01-15T20:36:19.009Z,3.80
2019-01-15T20:38:53.674Z,3.80
2019-01-15T20:41:40.151Z,3.80
2019-01-15T20:44:10.525Z,3.80
2019-01-15T20:46:50.374Z,3.80
2019-01-15T20:49:23.650Z,3.80
2019-01-15T20:52:09.778Z,3.80
2019-01-15T20:54:42.500Z,3.80
2019-01-15T20:57:28.878Z,3.80
2019-01-15T21:00:14.793Z,3.80
2019-01-15T21:02:44.926Z,3.80
2019-01-15T21:05:15.003Z,3.80
2019-01-15T21:07:57.137Z,3.80
2019-01-15T21:10:32.672Z,3.80
2019-01-15T21:13:02.729Z,3.80
2019-01-15T21:15:49.053Z,3.80
2019-01-15T21:18:21.845Z,3.80
2019-01-15T21:21:03.691Z,3.80
2019-01-15T21:23:50.034Z,3.80
2019-01-15T21:26:38.265Z,3.80
2019-01-15T21:29:08.337Z,3.80
2019-01-15T21:31:56.503Z,3.80
2019-01-15T21:34:32.193Z,3.80
2019-01-15T21:37:08.128Z,3.70
2019-01-15T21:39:38.276Z,3.80
2019-01-15T21:42:08.324Z,3.80
2019-01-15T21:44:54.112Z,3.80
2019-01-15T21:47:40.023Z,3.80
2019-01-15T21:50:05.875Z,3.80
2019-01-15T21:52:38.664Z,3.80
2019-01-15T21:55:09.868Z,3.80
2019-01-15T21:57:45.948Z,3.80
2019-01-15T22:00:25.521Z,3.70
2019-01-15T22:03:01.314Z,3.70
2019-01-15T22:05:35.598Z,3.70
2019-01-15T22:08:22.089Z,3.80
2019-01-15T22:10:52.154Z,3.70
2019-01-15T22:13:25.119Z,3.80
2019-01-15T22:15:55.197Z,3.70
2019-01-15T22:18:41.340Z,3.70
2019-01-15T22:21:11.468Z,3.70
2019-01-15T22:23:53.102Z,3.70
2019-01-15T22:26:23.212Z,3.70
2019-01-15T22:28:56.257Z,3.70
2019-01-15T22:31:42.442Z,3.70
2019-01-15T22:34:13.069Z,3.70
2019-01-15T22:36:47.237Z,3.70
2019-01-15T22:39:23.319Z,3.70
2019-01-15T22:42:05.048Z,3.70
2019-01-15T22:44:37.805Z,3.70
2019-01-15T22:47:23.617Z,3.70
2019-01-15T22:49:59.643Z,3.70
2019-01-15T22:52:29.713Z,3.70
2019-01-15T22:54:59.755Z,3.70
2019-01-15T22:57:29.935Z,3.70
2019-01-15T23:00:02.688Z,3.70
2019-01-15T23:02:32.758Z,3.70
2019-01-15T23:05:11.504Z,3.70
2019-01-15T23:07:58.984Z,3.70
2019-01-15T23:10:44.162Z,3.70
2019-01-15T23:13:19.693Z,3.70
2019-01-15T23:15:55.353Z,3.70
2019-01-15T23:18:31.093Z,3.70
2019-01-15T23:21:09.937Z,3.60
2019-01-15T23:23:56.017Z,3.70
2019-01-15T23:26:42.277Z,3.70
2019-01-15T23:29:21.392Z,3.60
2019-01-15T23:31:58.697Z,3.60
2019-01-15T23:34:31.697Z,3.60
2019-01-15T23:37:04.553Z,3.60
2019-01-15T23:39:43.346Z,3.60
2019-01-15T23:42:13.425Z,3.60
2019-01-15T23:44:59.426Z,3.60
2019-01-15T23:47:41.786Z,3.60
2019-01-15T23:50:12.391Z,3.60
2019-01-15T23:52:44.845Z,3.60
2019-01-15T23:55:20.525Z,3.60
2019-01-15T23:58:02.444Z,3.60
